Time;durP1;ratioP1;P1;durP2;ratioP2;P2;SDS_P1;SDS_P2;PMS_P1;PMS_P2;Temp;Humidity;BMP_temperature;BMP_pressure;BME280_temperature;BME280_humidity;BME280_pressure;Samples;Min_cycle;Max_cycle;Signal;HPM_P1;HPM_P2
2023/05/18 00:00:34;;;;;;;17.58;6.97;;;;;;;13.97;100.00;99874.84;4960453;28;20023;-73
2023/05/18 00:03:00;;;;;;;10.35;6.38;;;;;;;14.00;100.00;99877.50;4973878;28;20034;-72
2023/05/18 00:05:32;;;;;;;12.80;6.22;;;;;;;13.93;100.00;99881.72;4973728;28;20019;-68
2023/05/18 00:08:01;;;;;;;9.48;6.28;;;;;;;13.89;100.00;99882.53;4973842;28;20034;-70
2023/05/18 00:10:26;;;;;;;10.65;6.78;;;;;;;13.82;100.00;99884.19;4987802;28;20039;-74
2023/05/18 00:12:52;;;;;;;11.80;7.45;;;;;;;13.41;100.00;99832.59;4974141;28;20061;-69
2023/05/18 00:15:17;;;;;;;14.45;7.60;;;;;;;13.68;100.00;99886.59;4973872;28;20022;-69
2023/05/18 00:17:44;;;;;;;12.68;7.95;;;;;;;13.23;100.00;99826.25;4973459;28;20042;-68
2023/05/18 00:20:10;;;;;;;17.05;8.07;;;;;;;13.63;100.00;99887.38;4973411;28;20034;-69
2023/05/18 00:22:37;;;;;;;15.00;8.23;;;;;;;13.64;100.00;99889.97;4973917;28;20035;-74
2023/05/18 00:25:03;;;;;;;12.68;7.68;;;;;;;13.64;100.00;99897.75;4973644;28;20062;-73
2023/05/18 00:27:30;;;;;;;12.05;8.10;;;;;;;13.59;100.00;99887.31;4973483;28;20031;-69
2023/05/18 00:29:55;;;;;;;9.93;7.25;;;;;;;13.36;100.00;99871.38;4973766;28;20101;-69
2023/05/18 00:32:21;;;;;;;10.32;7.05;;;;;;;13.24;100.00;99889.31;4973045;28;20219;-67
2023/05/18 00:34:46;;;;;;;14.25;7.80;;;;;;;13.16;100.00;99886.59;4973276;28;20027;-73
2023/05/18 00:37:11;;;;;;;10.60;6.90;;;;;;;13.05;100.00;99878.63;4973237;28;20035;-69
2023/05/18 00:39:37;;;;;;;10.43;6.82;;;;;;;12.98;100.00;99861.22;4973116;28;20420;-69
2023/05/18 00:42:02;;;;;;;10.68;5.90;;;;;;;13.06;100.00;99870.00;4973366;28;20033;-69
2023/05/18 00:44:28;;;;;;;8.43;6.50;;;;;;;13.03;100.00;99866.50;4973294;28;20094;-70
2023/05/18 00:46:53;;;;;;;12.65;6.85;;;;;;;12.61;100.00;99795.81;4973078;28;20034;-74
2023/05/18 00:49:19;;;;;;;11.85;7.45;;;;;;;12.83;100.00;99837.66;4973328;28;20113;-72
2023/05/18 00:51:45;;;;;;;12.35;8.65;;;;;;;12.96;100.00;99862.94;4973170;28;20035;-73
2023/05/18 00:54:11;;;;;;;25.00;9.98;;;;;;;12.52;100.00;99798.25;4972963;28;20027;-69
2023/05/18 00:56:40;;;;;;;35.78;12.98;;;;;;;12.75;100.00;99853.06;4973126;28;20093;-68
2023/05/18 00:59:09;;;;;;;24.80;12.48;;;;;;;12.81;100.00;99871.31;4972627;28;20038;-71
2023/05/18 01:01:35;;;;;;;18.00;11.05;;;;;;;12.28;100.00;99791.78;4973001;28;20034;-69
2023/05/18 01:04:02;;;;;;;17.42;9.68;;;;;;;12.72;100.00;99877.19;4972961;28;20521;-68
2023/05/18 01:06:34;;;;;;;14.93;9.70;;;;;;;12.58;100.00;99869.13;4972856;28;20390;-68
2023/05/18 01:09:02;;;;;;;12.70;7.97;;;;;;;12.09;100.00;99806.94;4972760;28;20033;-69
2023/05/18 01:11:49;;;;;;;13.57;7.78;;;;;;;12.50;100.00;99872.44;4972636;28;20037;-70
2023/05/18 01:14:31;;;;;;;10.88;7.05;;;;;;;12.44;100.00;99862.84;4972811;28;20035;-71
2023/05/18 01:16:59;;;;;;;11.75;6.32;;;;;;;12.50;100.00;99877.59;4972040;28;20027;-67
2023/05/18 01:19:24;;;;;;;8.25;6.30;;;;;;;12.06;100.00;99806.00;4972749;28;20066;-68
2023/05/18 01:22:02;;;;;;;10.77;6.68;;;;;;;12.29;100.00;99847.88;4972636;28;20046;-68
2023/05/18 01:24:41;;;;;;;10.82;6.68;;;;;;;12.16;100.00;99820.00;4972426;28;20034;-69
2023/05/18 01:27:08;;;;;;;12.73;6.30;;;;;;;12.49;100.00;99873.28;4972526;28;20114;-69
2023/05/18 01:29:34;;;;;;;10.63;6.97;;;;;;;12.45;100.00;99874.94;4972383;28;20082;-68
2023/05/18 01:31:59;;;;;;;9.82;7.07;;;;;;;12.48;100.00;99880.16;4972568;28;20054;-68
2023/05/18 01:34:25;;;;;;;12.40;7.03;;;;;;;12.45;100.00;99886.16;4972213;28;20070;-68
2023/05/18 01:36:51;;;;;;;14.00;6.97;;;;;;;12.45;100.00;99888.75;4971982;28;20470;-68
2023/05/18 01:39:17;;;;;;;11.63;6.78;;;;;;;11.89;100.00;99795.31;4958408;28;20055;-69
2023/05/18 01:41:59;;;;;;;9.88;7.40;;;;;;;11.90;100.00;99808.25;4972252;28;20034;-69
2023/05/18 01:44:47;;;;;;;11.48;7.50;;;;;;;12.31;100.00;99890.19;4960086;28;20034;-71
2023/05/18 01:47:14;;;;;;;12.60;7.47;;;;;;;12.25;100.00;99896.13;4984792;28;20023;-71
2023/05/18 01:50:03;;;;;;;9.30;7.47;;;;;;;12.36;100.00;99911.88;4972153;28;20089;-68
2023/05/18 01:52:57;;;;;;;11.85;8.00;;;;;;;12.24;100.00;99894.38;4971580;28;20034;-73
2023/05/18 01:55:24;;;;;;;10.73;7.18;;;;;;;12.41;100.00;99915.44;4970029;28;20109;-69
2023/05/18 01:57:53;;;;;;;13.15;7.82;;;;;;;11.80;100.00;99820.13;4971511;28;20026;-68
2023/05/18 02:00:21;;;;;;;11.68;7.90;;;;;;;12.35;100.00;99914.41;4972093;28;20058;-70
2023/05/18 02:02:47;;;;;;;15.95;7.82;;;;;;;12.48;100.00;99923.31;4972131;28;20065;-69
2023/05/18 02:05:12;;;;;;;12.23;7.15;;;;;;;12.51;100.00;99915.59;4971766;28;20063;-68
2023/05/18 02:07:39;;;;;;;12.15;7.63;;;;;;;12.39;100.00;99908.47;4971760;28;20519;-69
2023/05/18 02:10:05;;;;;;;11.70;8.10;;;;;;;12.43;100.00;99925.81;4971537;28;20093;-71
2023/05/18 02:12:31;;;;;;;9.93;7.40;;;;;;;12.42;100.00;99922.38;4971630;28;20034;-69
2023/05/18 02:14:57;;;;;;;10.77;7.57;;;;;;;12.44;100.00;99922.38;4971319;28;20035;-70
2023/05/18 02:17:24;;;;;;;10.90;7.65;;;;;;;12.22;100.00;99877.06;4971573;28;20090;-75
2023/05/18 02:19:50;;;;;;;14.45;8.20;;;;;;;11.78;100.00;99790.75;4971587;28;20118;-70
2023/05/18 02:22:16;;;;;;;13.90;8.00;;;;;;;12.58;100.00;99923.53;4971642;28;20101;-71
2023/05/18 02:24:41;;;;;;;8.40;6.70;;;;;;;12.65;100.00;99923.63;4971444;28;20035;-70
2023/05/18 02:27:06;;;;;;;9.93;7.50;;;;;;;12.64;100.00;99914.16;4970476;28;20796;-71
2023/05/18 02:29:32;;;;;;;11.48;7.38;;;;;;;12.71;100.00;99929.84;4971521;28;20022;-68
2023/05/18 02:31:58;;;;;;;11.10;6.78;;;;;;;12.46;100.00;99882.75;4971730;28;20023;-68
2023/05/18 02:34:23;;;;;;;10.52;6.82;;;;;;;12.73;100.00;99929.84;4971443;28;20033;-70
2023/05/18 02:36:49;;;;;;;12.82;7.45;;;;;;;12.75;100.00;99947.16;4971635;28;20456;-69
2023/05/18 02:39:15;;;;;;;15.50;7.03;;;;;;;12.74;100.00;99945.41;4970948;28;20473;-71
2023/05/18 02:41:40;;;;;;;12.30;6.95;;;;;;;12.76;100.00;99951.50;4971214;28;20808;-73
2023/05/18 02:44:06;;;;;;;10.75;7.07;;;;;;;12.76;100.00;99948.91;4971426;28;20034;-71
2023/05/18 02:46:31;;;;;;;9.10;6.97;;;;;;;12.85;100.00;99955.13;4971655;28;20034;-68
2023/05/18 02:48:57;;;;;;;12.98;7.38;;;;;;;12.86;100.00;99962.94;4971230;28;20038;-71
2023/05/18 02:51:23;;;;;;;9.32;6.95;;;;;;;12.76;100.00;99956.69;4971487;28;20035;-71
2023/05/18 02:53:50;;;;;;;9.40;6.57;;;;;;;12.56;100.00;99956.28;4971149;28;20031;-69
2023/05/18 02:56:16;;;;;;;10.38;6.40;;;;;;;12.51;100.00;99972.56;4975230;28;20039;-67
2023/05/18 02:58:42;;;;;;;9.82;6.90;;;;;;;12.02;100.00;99902.53;4971029;28;20516;-68
2023/05/18 03:01:08;;;;;;;9.63;6.82;;;;;;;12.38;100.00;99964.53;4971348;28;20031;-69
2023/05/18 03:03:34;;;;;;;11.68;6.93;;;;;;;12.38;100.00;99972.31;4966399;28;20023;-69
2023/05/18 03:06:01;;;;;;;10.40;7.20;;;;;;;12.04;100.00;99912.06;4962710;28;20030;-70
2023/05/18 03:08:27;;;;;;;11.20;7.45;;;;;;;12.43;100.00;99969.81;4970997;28;20413;-69
2023/05/18 03:10:53;;;;;;;12.88;7.50;;;;;;;12.46;100.00;99969.88;4971487;28;20041;-69
2023/05/18 03:13:19;;;;;;;7.15;6.32;;;;;;;11.94;100.00;99891.97;4970969;28;20027;-69
2023/05/18 03:15:44;;;;;;;11.73;6.93;;;;;;;11.98;100.00;99922.28;4985187;28;20047;-69
2023/05/18 03:18:11;;;;;;;11.20;6.93;;;;;;;12.29;100.00;99982.47;4971169;28;20034;-69
2023/05/18 03:20:36;;;;;;;9.55;6.20;;;;;;;12.42;100.00;99996.53;4970877;28;20049;-72
2023/05/18 03:23:02;;;;;;;8.35;6.32;;;;;;;12.43;100.00;99999.16;4970874;28;20022;-69
2023/05/18 03:25:29;;;;;;;10.55;7.70;;;;;;;12.40;100.00;100003.41;4971360;28;20097;-69
2023/05/18 03:27:54;;;;;;;14.10;7.65;;;;;;;12.38;100.00;100003.38;4970558;28;20102;-69
2023/05/18 03:30:20;;;;;;;9.30;7.22;;;;;;;12.39;100.00;100006.84;4971157;28;20451;-70
2023/05/18 03:32:46;;;;;;;14.55;7.03;;;;;;;11.90;100.00;99918.59;4970882;28;20027;-70
2023/05/18 03:35:12;;;;;;;10.73;7.13;;;;;;;11.53;100.00;99866.91;4969781;28;20117;-70
2023/05/18 03:37:38;;;;;;;10.05;6.95;;;;;;;12.27;100.00;99999.66;4970229;28;20401;-72
2023/05/18 03:40:15;;;;;;;12.23;7.80;;;;;;;12.24;100.00;100010.81;4974030;28;20046;-74
2023/05/18 03:42:41;;;;;;;11.13;7.05;;;;;;;12.10;100.00;99987.22;4974591;28;20015;-69
2023/05/18 03:45:08;;;;;;;9.82;6.85;;;;;;;11.75;100.00;99948.44;4974407;28;20400;-70
2023/05/18 03:47:33;;;;;;;19.42;6.78;;;;;;;12.07;100.00;100001.81;4974409;28;20448;-70
2023/05/18 03:49:59;;;;;;;11.70;7.40;;;;;;;12.03;100.00;100006.03;4974844;28;20022;-69
2023/05/18 03:52:24;;;;;;;11.45;7.10;;;;;;;11.89;100.00;99991.88;4973829;28;20038;-69
2023/05/18 03:54:52;;;;;;;8.70;6.65;;;;;;;11.80;100.00;99975.28;4974419;28;20086;-68
2023/05/18 03:57:18;;;;;;;12.05;7.20;;;;;;;11.73;100.00;99968.22;4974186;28;20041;-72
2023/05/18 03:59:44;;;;;;;12.63;6.40;;;;;;;11.85;100.00;99987.44;4974292;28;20022;-69
2023/05/18 04:02:11;;;;;;;12.77;7.20;;;;;;;12.05;100.00;100021.59;4987762;28;20035;-71
2023/05/18 04:04:40;;;;;;;10.63;6.45;;;;;;;12.07;100.00;100018.19;4972513;28;20508;-71
2023/05/18 04:07:07;;;;;;;11.25;6.70;;;;;;;12.07;100.00;100023.38;4973894;28;20520;-71
2023/05/18 04:09:32;;;;;;;9.98;7.00;;;;;;;12.15;100.00;100036.50;4974214;28;20099;-71
2023/05/18 04:11:58;;;;;;;13.40;6.93;;;;;;;12.24;100.00;100044.47;4973787;28;20162;-70
2023/05/18 04:14:26;;;;;;;11.55;6.95;;;;;;;12.28;100.00;100042.84;4973918;28;20030;-69
2023/05/18 04:16:52;;;;;;;9.35;6.78;;;;;;;12.04;100.00;99994.00;4973549;28;20058;-69
2023/05/18 04:19:18;;;;;;;15.57;7.30;;;;;;;12.36;100.00;100037.81;4973211;28;20074;-68
2023/05/18 04:21:46;;;;;;;12.15;7.72;;;;;;;12.33;100.00;100040.38;4973405;28;20081;-69
2023/05/18 04:24:13;;;;;;;13.07;6.97;;;;;;;12.32;100.00;100042.06;4963268;28;20094;-73
2023/05/18 04:26:39;;;;;;;14.00;7.28;;;;;;;11.90;100.00;99981.56;4963085;28;20062;-72
2023/05/18 04:29:06;;;;;;;10.90;7.32;;;;;;;12.23;100.00;100045.31;4954527;28;20023;-74
2023/05/18 04:31:33;;;;;;;17.00;9.27;;;;;;;12.32;100.00;100044.66;4954488;28;20054;-69
2023/05/18 04:34:00;;;;;;;16.08;10.18;;;;;;;12.36;100.00;100046.50;4994551;28;20493;-69
2023/05/18 04:36:29;;;;;;;12.52;8.77;;;;;;;12.25;100.00;100030.69;4958768;28;20031;-72
2023/05/18 04:38:57;;;;;;;16.67;7.90;;;;;;;12.37;100.00;100040.44;4975936;28;20097;-72
2023/05/18 04:41:23;;;;;;;9.60;7.50;;;;;;;12.52;100.00;100046.81;4952608;28;20035;-74
2023/05/18 04:43:51;;;;;;;11.30;7.13;;;;;;;12.57;100.00;100052.97;4960206;28;20039;-70
2023/05/18 04:46:17;;;;;;;17.70;8.50;;;;;;;12.58;100.00;100031.41;4958897;28;20046;-70
2023/05/18 04:48:42;;;;;;;11.05;7.50;;;;;;;12.69;100.00;100042.88;4964820;28;20031;-69
2023/05/18 04:51:08;;;;;;;16.30;7.55;;;;;;;12.65;100.00;100022.94;4952666;28;20039;-72
2023/05/18 04:53:33;;;;;;;14.48;8.45;;;;;;;12.19;100.00;99957.25;4957591;28;20035;-73
2023/05/18 04:56:00;;;;;;;15.55;8.95;;;;;;;12.76;100.00;100049.06;4966819;28;20446;-73
2023/05/18 04:58:26;;;;;;;12.43;7.78;;;;;;;12.77;100.00;100058.56;4953795;28;20037;-71
2023/05/18 05:00:52;;;;;;;11.90;7.90;;;;;;;12.77;100.00;100050.81;4953781;28;20045;-71
2023/05/18 05:03:18;;;;;;;12.52;8.05;;;;;;;12.78;100.00;100044.78;4966982;28;20081;-73
2023/05/18 05:05:44;;;;;;;10.48;8.15;;;;;;;12.75;100.00;100062.88;4969477;28;20039;-72
2023/05/18 05:08:10;;;;;;;12.32;8.63;;;;;;;12.75;100.00;100053.38;4953690;28;20062;-70
2023/05/18 05:10:36;;;;;;;15.07;9.73;;;;;;;12.74;100.00;100064.56;4953002;28;20379;-73
2023/05/18 05:13:02;;;;;;;17.23;11.57;;;;;;;12.84;100.00;100067.38;4953182;28;20062;-69
2023/05/18 05:15:28;;;;;;;18.65;11.45;;;;;;;12.95;100.00;100066.75;4969113;28;20030;-69
2023/05/18 05:17:54;;;;;;;15.80;9.88;;;;;;;13.01;100.00;100071.19;4972143;28;20043;-66
2023/05/18 05:20:20;;;;;;;18.65;9.95;;;;;;;13.14;100.00;100081.81;4972348;28;20026;-71
2023/05/18 05:22:45;;;;;;;17.00;8.73;;;;;;;13.15;100.00;100074.06;4972240;28;20045;-72
2023/05/18 05:25:11;;;;;;;15.27;7.75;;;;;;;13.32;100.00;100092.53;4972144;28;20023;-69
2023/05/18 05:27:36;;;;;;;12.75;7.80;;;;;;;13.42;100.00;100086.72;4972150;28;20493;-68
2023/05/18 05:30:02;;;;;;;13.02;8.25;;;;;;;13.35;100.00;100063.22;4971857;28;20031;-68
2023/05/18 05:32:27;;;;;;;11.68;7.07;;;;;;;13.52;100.00;100079.97;4971911;28;20030;-68
2023/05/18 05:34:53;;;;;;;11.90;7.40;;;;;;;13.46;100.00;100064.31;4971770;28;20031;-70
2023/05/18 05:37:18;;;;;;;12.38;7.28;;;;;;;13.53;100.00;100084.34;4972063;28;20030;-66
2023/05/18 05:39:44;;;;;;;11.73;6.93;;;;;;;13.66;100.00;100100.13;4972076;28;20039;-73
2023/05/18 05:42:10;;;;;;;11.35;6.78;;;;;;;13.69;100.00;100088.06;4970917;28;20528;-70
2023/05/18 05:44:35;;;;;;;13.93;8.50;;;;;;;13.74;100.00;100099.41;4986759;28;20190;-74
2023/05/18 05:47:02;;;;;;;9.93;6.93;;;;;;;13.76;100.00;100094.25;4959407;28;20030;-70
2023/05/18 05:49:27;;;;;;;12.32;7.18;;;;;;;13.81;100.00;100099.53;4950449;28;20031;-72
2023/05/18 05:51:52;;;;;;;11.77;7.53;;;;;;;13.80;100.00;100103.81;4958815;28;20030;-73
2023/05/18 05:54:18;;;;;;;14.38;6.57;;;;;;;13.85;100.00;100093.53;4956640;28;20030;-67
2023/05/18 05:56:43;;;;;;;9.32;5.85;;;;;;;13.92;100.00;100100.59;4970905;28;20046;-68
2023/05/18 05:59:09;;;;;;;10.90;6.68;;;;;;;13.97;100.00;100113.63;4964085;28;20023;-71
2023/05/18 06:01:34;;;;;;;7.13;6.22;;;;;;;14.11;100.00;100111.28;4963711;28;20049;-70
2023/05/18 06:04:02;;;;;;;7.88;5.72;;;;;;;14.05;100.00;100083.50;4949483;28;20398;-69
2023/05/18 06:06:28;;;;;;;9.80;5.13;;;;;;;14.23;100.00;100090.69;4951107;28;20033;-69
2023/05/18 06:08:54;;;;;;;10.52;5.45;;;;;;;14.33;100.00;100091.72;4952542;28;20031;-70
2023/05/18 06:11:19;;;;;;;7.75;5.40;;;;;;;14.24;100.00;100084.66;4952775;28;20035;-67
2023/05/18 06:13:46;;;;;;;11.52;5.78;;;;;;;14.29;100.00;100095.97;4952493;28;20032;-70
2023/05/18 06:16:11;;;;;;;12.77;6.32;;;;;;;14.38;100.00;100105.63;4973399;28;20047;-72
2023/05/18 06:18:38;;;;;;;12.45;7.10;;;;;;;14.46;100.00;100110.97;4969763;28;20466;-71
2023/05/18 06:21:03;;;;;;;8.70;6.20;;;;;;;14.54;100.00;100130.13;4971482;28;20049;-69
2023/05/18 06:23:29;;;;;;;7.90;5.10;;;;;;;14.60;100.00;100114.63;4985287;28;20414;-71
2023/05/18 06:25:54;;;;;;;9.93;5.20;;;;;;;14.52;100.00;100116.25;4971184;28;20030;-67
2023/05/18 06:28:20;;;;;;;8.32;5.78;;;;;;;14.50;100.00;100104.97;4971595;28;20162;-70
2023/05/18 06:30:46;;;;;;;11.13;5.45;;;;;;;14.65;100.00;100126.00;4971339;28;20030;-69
2023/05/18 06:33:12;;;;;;;7.50;4.28;;;;;;;14.69;100.00;100134.72;4970128;28;20482;-68
2023/05/18 06:35:37;;;;;;;6.68;4.50;;;;;;;14.66;100.00;100119.09;4971592;28;20059;-68
2023/05/18 06:38:03;;;;;;;10.25;4.88;;;;;;;14.57;100.00;100101.59;4970111;28;20173;-73
2023/05/18 06:40:29;;;;;;;9.40;5.70;;;;;;;14.76;100.00;100122.69;4971541;28;20133;-69
2023/05/18 06:42:54;;;;;;;10.55;5.22;;;;;;;14.85;100.00;100128.00;4971441;28;20027;-71
2023/05/18 06:45:19;;;;;;;9.40;4.70;;;;;;;14.97;100.00;100133.38;4970902;28;20435;-68
2023/05/18 06:47:45;;;;;;;7.72;4.63;;;;;;;15.10;100.00;100146.53;4969428;28;20029;-69
2023/05/18 06:50:10;;;;;;;9.70;4.68;;;;;;;15.12;100.00;100150.06;4969237;28;20034;-72
2023/05/18 06:52:36;;;;;;;6.15;4.15;;;;;;;15.16;100.00;100151.81;4969313;28;20436;-68
2023/05/18 06:55:02;;;;;;;9.65;4.72;;;;;;;15.00;100.00;100130.84;4984395;28;20033;-72
2023/05/18 06:57:28;;;;;;;6.68;4.20;;;;;;;15.14;100.00;100156.13;4968233;28;20058;-73
2023/05/18 06:59:53;;;;;;;9.57;4.10;;;;;;;15.19;100.00;100150.13;4969279;28;20034;-69
2023/05/18 07:02:20;;;;;;;10.00;3.85;;;;;;;15.11;100.00;100156.97;4969129;28;20054;-69
2023/05/18 07:04:47;;;;;;;8.80;3.80;;;;;;;15.19;100.00;100159.69;4969326;28;20031;-69
2023/05/18 07:07:12;;;;;;;5.35;3.58;;;;;;;15.11;100.00;100156.97;4968941;28;20027;-69
2023/05/18 07:09:38;;;;;;;8.15;3.78;;;;;;;14.89;100.00;100119.41;4967815;28;20094;-70
2023/05/18 07:12:04;;;;;;;5.38;3.78;;;;;;;15.15;100.00;100165.66;4948897;28;20035;-68
2023/05/18 07:14:29;;;;;;;7.38;3.80;;;;;;;15.07;100.00;100160.38;4953497;28;20042;-68
2023/05/18 07:16:56;;;;;;;9.90;4.22;;;;;;;15.10;100.00;100163.00;4967247;28;20031;-73
2023/05/18 07:19:42;;;;;;;8.25;3.88;;;;;;;14.17;100.00;100013.59;4981270;28;20042;-71
2023/05/18 07:22:07;;;;;;;4.82;3.53;;;;;;;15.16;100.00;100168.28;4981787;28;20039;-74
2023/05/18 07:24:33;;;;;;;16.90;4.55;;;;;;;15.22;100.00;100170.09;4991031;28;20409;-76
2023/05/18 07:26:58;;;;;;;6.45;3.67;;;;;;;15.23;100.00;100171.84;4974700;28;20026;-73
2023/05/18 07:29:23;;;;;;;8.32;4.80;;;;;;;15.29;100.00;100174.53;4991532;28;20030;-71
2023/05/18 07:31:49;;;;;;;10.38;4.18;;;;;;;15.05;100.00;100138.66;4991788;28;20045;-73
2023/05/18 07:34:15;;;;;;;8.10;4.00;;;;;;;15.28;100.00;100174.53;4991312;28;20031;-72
2023/05/18 07:36:40;;;;;;;9.55;4.22;;;;;;;15.09;100.00;100150.00;4991548;28;20101;-72
2023/05/18 07:39:06;;;;;;;7.18;3.60;;;;;;;14.91;100.00;100119.44;4990983;28;20437;-72
2023/05/18 07:41:32;;;;;;;6.97;3.80;;;;;;;15.31;100.00;100171.94;4991217;28;20081;-75
2023/05/18 07:43:58;;;;;;;7.45;3.95;;;;;;;15.44;100.00;100188.56;4991469;28;20042;-72
2023/05/18 07:46:23;;;;;;;7.00;3.50;;;;;;;15.25;100.00;100162.31;4991494;28;20034;-70
2023/05/18 07:48:48;;;;;;;7.60;3.85;;;;;;;15.47;100.00;100180.81;4991362;28;20038;-74
2023/05/18 07:51:14;;;;;;;8.70;3.30;;;;;;;15.45;100.00;100164.31;4991365;28;20081;-70
2023/05/18 07:53:40;;;;;;;8.55;3.20;;;;;;;15.57;100.00;100185.28;5002567;28;20563;-71
2023/05/18 07:56:07;;;;;;;6.80;3.53;;;;;;;15.62;100.00;100183.59;4988018;28;20026;-71
2023/05/18 07:58:35;;;;;;;8.27;3.67;;;;;;;15.58;100.00;100168.81;4968077;28;20405;-72
2023/05/18 08:01:01;;;;;;;5.85;3.53;;;;;;;15.31;100.00;100115.59;4974067;28;20109;-71
2023/05/18 08:03:27;;;;;;;8.60;3.55;;;;;;;15.68;100.00;100167.19;4973795;28;20113;-70
2023/05/18 08:05:52;;;;;;;6.47;3.00;;;;;;;15.95;100.00;100192.69;4972930;28;20038;-73
2023/05/18 08:08:19;;;;;;;7.85;3.00;;;;;;;15.94;100.00;100195.28;4988752;28;20117;-71
2023/05/18 08:10:44;;;;;;;5.65;3.33;;;;;;;15.99;100.00;100204.88;4988597;28;20070;-70
2023/05/18 08:13:10;;;;;;;7.45;3.50;;;;;;;15.95;100.00;100192.69;4974056;28;20077;-71
2023/05/18 08:15:36;;;;;;;5.25;3.00;;;;;;;16.08;100.00;100201.47;4988890;28;20452;-71
2023/05/18 08:18:01;;;;;;;6.53;2.75;;;;;;;16.14;100.00;100218.91;4973998;28;20097;-71
2023/05/18 08:20:29;;;;;;;5.28;2.45;;;;;;;16.21;100.00;100220.69;4973931;28;20501;-71
2023/05/18 08:22:55;;;;;;;7.40;2.90;;;;;;;16.27;100.00;100207.72;4973640;28;20031;-71
2023/05/18 08:25:21;;;;;;;5.70;2.90;;;;;;;15.90;100.00;100137.09;4973305;28;20076;-73
2023/05/18 08:27:47;;;;;;;6.53;2.80;;;;;;;16.39;100.00;100227.84;4973740;28;20031;-70
2023/05/18 08:30:13;;;;;;;6.03;2.47;;;;;;;16.27;100.00;100214.69;4973778;28;20514;-67
2023/05/18 08:32:38;;;;;;;6.97;3.00;;;;;;;16.39;100.00;100217.41;4973852;28;20505;-69
2023/05/18 08:35:04;;;;;;;7.05;2.92;;;;;;;16.42;100.00;100221.78;4973300;28;20054;-79
2023/05/18 08:37:30;;;;;;;4.07;2.30;;;;;;;16.40;100.00;100215.66;4972419;28;20129;-73
2023/05/18 08:39:58;;;;;;;5.57;2.42;;;;;;;16.39;100.00;100211.34;4973041;28;20058;-72
2023/05/18 08:42:36;;;;;;;7.00;3.05;;;;;;;16.40;100.00;100221.75;4964034;28;20050;-67
2023/05/18 08:45:17;;;;;;;5.10;2.08;;;;;;;16.38;100.00;100231.28;4958365;28;20050;-67
2023/05/18 08:47:43;;;;;;;5.43;3.08;;;;;;;16.38;100.00;100213.06;4958573;28;20039;-73
2023/05/18 08:50:12;;;;;;;8.18;2.97;;;;;;;16.48;100.00;100230.50;4976976;28;20022;-71
2023/05/18 08:52:45;;;;;;;6.63;2.80;;;;;;;16.51;100.00;100229.69;4957338;28;20107;-69
2023/05/18 08:55:12;;;;;;;6.63;2.60;;;;;;;16.52;100.00;100238.38;4966571;28;20485;-69
2023/05/18 08:57:40;;;;;;;6.43;3.20;;;;;;;16.40;100.00;100210.44;4970677;28;20034;-73
2023/05/18 09:00:08;;;;;;;6.78;2.78;;;;;;;16.49;100.00;100229.66;4964116;28;20066;-72
2023/05/18 09:02:35;;;;;;;5.22;2.58;;;;;;;16.42;100.00;100221.78;4955868;28;20027;-68
2023/05/18 09:05:02;;;;;;;6.55;2.53;;;;;;;16.11;100.00;100166.78;4959510;28;20573;-72
2023/05/18 09:07:28;;;;;;;6.85;2.38;;;;;;;16.46;100.00;100236.56;4957766;28;20031;-69
2023/05/18 09:09:55;;;;;;;6.20;2.53;;;;;;;16.43;100.00;100228.75;4952865;28;20105;-70
2023/05/18 09:12:22;;;;;;;8.85;6.15;;;;;;;16.32;100.00;100215.59;4960855;28;20031;-70
2023/05/18 09:14:50;;;;;;;8.90;7.00;;;;;;;16.42;100.00;100229.59;4952942;28;20413;-74
2023/05/18 09:17:15;;;;;;;5.10;2.63;;;;;;;16.26;100.00;100211.22;4955867;28;20371;-72
2023/05/18 09:19:40;;;;;;;5.57;2.90;;;;;;;16.48;100.00;100237.47;4967291;28;20050;-69
2023/05/18 09:22:06;;;;;;;6.82;2.50;;;;;;;16.50;100.00;100235.75;4953305;28;20023;-69
2023/05/18 09:24:33;;;;;;;5.82;2.90;;;;;;;16.50;100.00;100231.41;4953913;28;20037;-70
2023/05/18 09:26:59;;;;;;;6.88;2.38;;;;;;;16.49;100.00;100226.19;4960169;28;20035;-71
2023/05/18 09:29:24;;;;;;;7.15;2.50;;;;;;;16.43;100.00;100215.72;4968838;28;20117;-70
2023/05/18 09:31:50;;;;;;;7.57;2.53;;;;;;;16.07;100.00;100158.06;4971391;28;20027;-75
2023/05/18 09:34:18;;;;;;;5.57;2.70;;;;;;;16.00;100.00;100153.69;4959126;28;20138;-72
2023/05/18 09:36:51;;;;;;;9.55;2.60;;;;;;;16.41;100.00;100233.94;4964904;28;20048;-71
2023/05/18 09:39:17;;;;;;;4.50;2.35;;;;;;;16.37;100.00;100241.72;4963372;28;20047;-70
2023/05/18 09:41:42;;;;;;;5.50;2.60;;;;;;;16.06;100.00;100194.53;4967308;28;20037;-72
2023/05/18 09:44:08;;;;;;;6.43;2.40;;;;;;;15.79;100.00;100167.31;4972380;28;20023;-70
2023/05/18 09:46:37;;;;;;;4.68;2.65;;;;;;;16.25;100.00;100247.66;4967613;28;20030;-74
2023/05/18 09:49:04;;;;;;;7.57;2.60;;;;;;;16.36;100.00;100252.97;4961126;28;20124;-74
2023/05/18 09:51:33;;;;;;;4.65;2.70;;;;;;;16.48;100.00;100256.56;4952501;28;20093;-73
2023/05/18 09:53:58;;;;;;;4.78;2.45;;;;;;;16.30;100.00;100233.81;4957681;28;20081;-71
2023/05/18 09:56:25;;;;;;;4.57;2.58;;;;;;;16.49;100.00;100262.66;4968476;28;20477;-74
2023/05/18 09:58:51;;;;;;;5.15;2.30;;;;;;;16.55;100.00;100262.72;4961931;28;20114;-74
2023/05/18 10:01:17;;;;;;;6.72;2.75;;;;;;;16.58;100.00;100254.91;4955991;28;20043;-73
2023/05/18 10:03:44;;;;;;;4.72;2.40;;;;;;;16.45;100.00;100238.31;4975135;28;20049;-73
2023/05/18 10:06:13;;;;;;;4.53;2.40;;;;;;;15.90;100.00;100125.78;4962154;28;20417;-73
2023/05/18 10:08:40;;;;;;;7.70;2.53;;;;;;;16.65;100.00;100261.94;4951836;28;20039;-71
2023/05/18 10:11:06;;;;;;;3.65;2.03;;;;;;;16.73;100.00;100256.78;4951823;28;20050;-70
2023/05/18 10:13:33;;;;;;;5.55;2.05;;;;;;;16.76;100.00;100261.16;4961367;28;20038;-71
2023/05/18 10:16:01;;;;;;;4.47;2.38;;;;;;;16.46;100.00;100210.50;4966719;28;20121;-70
2023/05/18 10:18:29;;;;;;;4.22;2.50;;;;;;;16.75;100.00;100257.69;4958492;28;20077;-74
2023/05/18 10:20:56;;;;;;;4.53;2.15;;;;;;;16.76;100.00;100261.16;4960799;28;20114;-69
2023/05/18 10:23:24;;;;;;;7.25;2.58;;;;;;;16.86;100.00;100263.00;4959303;28;20031;-71
2023/05/18 10:25:51;;;;;;;7.75;3.00;;;;;;;16.90;100.00;100258.69;4954727;28;20485;-72
2023/05/18 10:28:26;;;;;;;4.97;3.10;;;;;;;16.94;100.00;100260.47;4970043;28;20067;-74
2023/05/18 10:30:53;;;;;;;5.05;2.63;;;;;;;16.92;100.00;100265.69;4971654;28;20037;-74
2023/05/18 10:33:22;;;;;;;5.55;2.45;;;;;;;16.82;100.00;100255.97;4955376;28;20097;-69
2023/05/18 10:35:48;;;;;;;8.88;2.42;;;;;;;16.86;100.00;100267.31;4971676;28;20031;-69
2023/05/18 10:38:27;;;;;;;9.02;3.10;;;;;;;16.77;100.00;100263.78;4970783;28;20468;-72
2023/05/18 10:40:59;;;;;;;4.55;3.05;;;;;;;16.75;100.00;100252.47;4971858;28;20055;-72
2023/05/18 10:43:26;;;;;;;6.45;3.15;;;;;;;16.92;100.00;100278.72;4971608;28;20034;-73
2023/05/18 10:45:59;;;;;;;5.75;2.58;;;;;;;16.90;100.00;100285.59;4971776;28;20026;-72
2023/05/18 10:48:26;;;;;;;4.93;2.58;;;;;;;16.79;100.00;100269.88;4972603;28;20035;-69
2023/05/18 10:50:53;;;;;;;7.00;2.58;;;;;;;16.62;100.00;100259.31;4975233;28;20062;-74
2023/05/18 10:53:21;;;;;;;7.40;2.60;;;;;;;16.82;100.00;100285.56;4975463;28;20026;-72
2023/05/18 10:55:47;;;;;;;5.85;2.65;;;;;;;16.66;100.00;100266.28;4975520;28;20050;-69
2023/05/18 10:58:15;;;;;;;5.72;2.70;;;;;;;16.71;100.00;100268.94;4975286;28;20035;-70
2023/05/18 11:00:45;;;;;;;4.40;2.40;;;;;;;16.80;100.00;100278.59;4989627;28;20511;-76
2023/05/18 11:03:13;;;;;;;5.32;2.60;;;;;;;16.79;100.00;100293.34;4975625;28;20023;-76
2023/05/18 11:05:40;;;;;;;6.93;2.40;;;;;;;16.73;100.00;100282.00;4975221;28;20054;-69
2023/05/18 11:08:05;;;;;;;4.03;2.47;;;;;;;16.69;100.00;100278.47;4974900;28;20034;-69
2023/05/18 11:10:45;;;;;;;5.13;2.58;;;;;;;16.38;100.00;100239.09;4975218;28;20042;-75
2023/05/18 11:13:13;;;;;;;3.88;2.25;;;;;;;16.63;100.00;100292.31;4975230;28;20118;-75
2023/05/18 11:15:54;;;;;;;2.83;2.22;;;;;;;16.70;100.00;100315.84;4975003;28;20030;-71